sensor_id;sensor_type;location;lat;lon;timestamp;temperature;humidity
14517;DHT22;7344;50.864;4.362;2022-08-19T00:00:38;20.50;49.40
14517;DHT22;7344;50.864;4.362;2022-08-19T00:03:04;20.40;54.40
14517;DHT22;7344;50.864;4.362;2022-08-19T00:05:30;20.30;61.50
14517;DHT22;7344;50.864;4.362;2022-08-19T00:07:56;20.30;65.80
14517;DHT22;7344;50.864;4.362;2022-08-19T00:10:23;20.20;69.20
14517;DHT22;7344;50.864;4.362;2022-08-19T00:12:50;20.30;70.30
14517;DHT22;7344;50.864;4.362;2022-08-19T00:15:19;20.30;69.80
14517;DHT22;7344;50.864;4.362;2022-08-19T00:17:45;20.30;74.60
14517;DHT22;7344;50.864;4.362;2022-08-19T00:20:14;20.30;82.50
14517;DHT22;7344;50.864;4.362;2022-08-19T00:22:41;20.30;85.50
14517;DHT22;7344;50.864;4.362;2022-08-19T00:25:08;20.30;90.90
14517;DHT22;7344;50.864;4.362;2022-08-19T00:27:34;20.40;90.60
14517;DHT22;7344;50.864;4.362;2022-08-19T00:30:00;20.40;90.10
14517;DHT22;7344;50.864;4.362;2022-08-19T00:32:27;20.50;93.20
14517;DHT22;7344;50.864;4.362;2022-08-19T00:34:53;20.60;92.30
14517;DHT22;7344;50.864;4.362;2022-08-19T00:37:21;20.60;91.60
14517;DHT22;7344;50.864;4.362;2022-08-19T00:39:48;20.50;92.70
14517;DHT22;7344;50.864;4.362;2022-08-19T00:42:16;20.50;94.70
14517;DHT22;7344;50.864;4.362;2022-08-19T00:44:42;20.60;95.50
14517;DHT22;7344;50.864;4.362;2022-08-19T00:47:08;20.60;93.90
14517;DHT22;7344;50.864;4.362;2022-08-19T00:49:41;20.50;96.00
14517;DHT22;7344;50.864;4.362;2022-08-19T00:52:14;20.50;97.80
14517;DHT22;7344;50.864;4.362;2022-08-19T00:54:41;20.50;98.90
14517;DHT22;7344;50.864;4.362;2022-08-19T00:57:10;20.70;96.80
14517;DHT22;7344;50.864;4.362;2022-08-19T00:59:39;20.70;93.80
14517;DHT22;7344;50.864;4.362;2022-08-19T01:02:07;20.80;95.30
14517;DHT22;7344;50.864;4.362;2022-08-19T01:04:32;20.80;90.60
14517;DHT22;7344;50.864;4.362;2022-08-19T01:06:59;20.80;90.50
14517;DHT22;7344;50.864;4.362;2022-08-19T01:09:25;20.80;88.40
14517;DHT22;7344;50.864;4.362;2022-08-19T01:11:51;20.70;92.20
14517;DHT22;7344;50.864;4.362;2022-08-19T01:14:17;20.60;93.60
14517;DHT22;7344;50.864;4.362;2022-08-19T01:16:45;20.50;93.00
14517;DHT22;7344;50.864;4.362;2022-08-19T01:19:31;20.50;96.00
14517;DHT22;7344;50.864;4.362;2022-08-19T01:24:45;20.20;99.90
14517;DHT22;7344;50.864;4.362;2022-08-19T01:27:11;20.10;99.70
14517;DHT22;7344;50.864;4.362;2022-08-19T01:29:40;20.00;99.90
14517;DHT22;7344;50.864;4.362;2022-08-19T01:32:07;19.90;99.90
14517;DHT22;7344;50.864;4.362;2022-08-19T01:34:34;19.90;99.90
14517;DHT22;7344;50.864;4.362;2022-08-19T01:37:00;19.80;99.70
14517;DHT22;7344;50.864;4.362;2022-08-19T01:39:30;19.60;99.90
14517;DHT22;7344;50.864;4.362;2022-08-19T01:41:56;19.60;99.90
14517;DHT22;7344;50.864;4.362;2022-08-19T01:44:21;19.60;99.90
14517;DHT22;7344;50.864;4.362;2022-08-19T01:46:50;19.60;99.90
14517;DHT22;7344;50.864;4.362;2022-08-19T01:49:19;19.60;99.90
14517;DHT22;7344;50.864;4.362;2022-08-19T01:51:45;19.60;99.90
14517;DHT22;7344;50.864;4.362;2022-08-19T01:54:12;19.50;99.20
14517;DHT22;7344;50.864;4.362;2022-08-19T01:56:38;19.60;96.20
14517;DHT22;7344;50.864;4.362;2022-08-19T01:59:13;19.50;95.70
14517;DHT22;7344;50.864;4.362;2022-08-19T02:01:40;19.50;97.30
14517;DHT22;7344;50.864;4.362;2022-08-19T02:04:05;19.50;96.70
14517;DHT22;7344;50.864;4.362;2022-08-19T02:06:32;19.50;98.60
14517;DHT22;7344;50.864;4.362;2022-08-19T02:08:58;19.50;99.30
14517;DHT22;7344;50.864;4.362;2022-08-19T02:11:30;19.40;97.40
14517;DHT22;7344;50.864;4.362;2022-08-19T02:13:57;19.30;95.80
14517;DHT22;7344;50.864;4.362;2022-08-19T02:16:23;19.20;93.60
14517;DHT22;7344;50.864;4.362;2022-08-19T02:18:49;19.20;95.10
14517;DHT22;7344;50.864;4.362;2022-08-19T02:21:16;19.20;94.40
14517;DHT22;7344;50.864;4.362;2022-08-19T02:23:42;19.10;94.60
14517;DHT22;7344;50.864;4.362;2022-08-19T02:26:08;19.10;94.60
14517;DHT22;7344;50.864;4.362;2022-08-19T02:28:34;19.10;93.80
14517;DHT22;7344;50.864;4.362;2022-08-19T02:31:00;19.00;94.90
14517;DHT22;7344;50.864;4.362;2022-08-19T02:33:26;18.80;99.50
14517;DHT22;7344;50.864;4.362;2022-08-19T02:35:52;18.80;99.90
14517;DHT22;7344;50.864;4.362;2022-08-19T02:38:17;18.80;99.90
14517;DHT22;7344;50.864;4.362;2022-08-19T02:41:04;18.80;99.90
14517;DHT22;7344;50.864;4.362;2022-08-19T02:43:32;18.80;99.90
14517;DHT22;7344;50.864;4.362;2022-08-19T02:46:02;18.80;99.90
14517;DHT22;7344;50.864;4.362;2022-08-19T02:48:35;18.80;99.90
14517;DHT22;7344;50.864;4.362;2022-08-19T02:51:01;18.80;99.90
14517;DHT22;7344;50.864;4.362;2022-08-19T02:53:27;18.80;99.90
14517;DHT22;7344;50.864;4.362;2022-08-19T02:55:53;18.80;99.90
14517;DHT22;7344;50.864;4.362;2022-08-19T02:58:20;18.70;99.90
14517;DHT22;7344;50.864;4.362;2022-08-19T03:00:52;18.60;99.90
14517;DHT22;7344;50.864;4.362;2022-08-19T03:03:18;18.60;99.90
14517;DHT22;7344;50.864;4.362;2022-08-19T03:05:44;18.60;99.90
14517;DHT22;7344;50.864;4.362;2022-08-19T03:08:12;18.60;99.90
14517;DHT22;7344;50.864;4.362;2022-08-19T03:10:42;18.60;99.90
14517;DHT22;7344;50.864;4.362;2022-08-19T03:13:10;18.60;99.90
14517;DHT22;7344;50.864;4.362;2022-08-19T03:15:40;18.50;99.90
14517;DHT22;7344;50.864;4.362;2022-08-19T03:18:06;18.40;99.90
14517;DHT22;7344;50.864;4.362;2022-08-19T03:20:31;18.30;99.90
14517;DHT22;7344;50.864;4.362;2022-08-19T03:22:58;18.30;99.90
14517;DHT22;7344;50.864;4.362;2022-08-19T03:25:23;18.30;99.90
14517;DHT22;7344;50.864;4.362;2022-08-19T03:27:49;18.20;99.90
14517;DHT22;7344;50.864;4.362;2022-08-19T03:30:15;18.20;99.90
14517;DHT22;7344;50.864;4.362;2022-08-19T03:32:40;18.30;99.90
14517;DHT22;7344;50.864;4.362;2022-08-19T03:35:06;18.20;99.90
14517;DHT22;7344;50.864;4.362;2022-08-19T03:37:32;18.20;99.90
14517;DHT22;7344;50.864;4.362;2022-08-19T03:39:58;18.20;99.90
14517;DHT22;7344;50.864;4.362;2022-08-19T03:42:23;18.20;99.90
14517;DHT22;7344;50.864;4.362;2022-08-19T03:44:52;18.10;99.90
14517;DHT22;7344;50.864;4.362;2022-08-19T03:47:17;18.20;99.90
14517;DHT22;7344;50.864;4.362;2022-08-19T03:49:43;18.20;99.90
14517;DHT22;7344;50.864;4.362;2022-08-19T03:52:09;18.20;99.90
14517;DHT22;7344;50.864;4.362;2022-08-19T03:54:36;18.20;99.90
14517;DHT22;7344;50.864;4.362;2022-08-19T03:57:03;18.10;99.90
14517;DHT22;7344;50.864;4.362;2022-08-19T03:59:31;18.00;99.90
14517;DHT22;7344;50.864;4.362;2022-08-19T04:01:59;18.00;99.90
14517;DHT22;7344;50.864;4.362;2022-08-19T04:04:25;18.00;99.90
14517;DHT22;7344;50.864;4.362;2022-08-19T04:06:51;17.90;99.90
14517;DHT22;7344;50.864;4.362;2022-08-19T04:09:17;17.90;99.90
14517;DHT22;7344;50.864;4.362;2022-08-19T04:11:47;17.80;99.90
14517;DHT22;7344;50.864;4.362;2022-08-19T04:14:16;17.80;99.90
14517;DHT22;7344;50.864;4.362;2022-08-19T04:16:44;17.70;99.90
14517;DHT22;7344;50.864;4.362;2022-08-19T04:19:10;17.70;99.90
14517;DHT22;7344;50.864;4.362;2022-08-19T04:21:35;17.70;99.90
14517;DHT22;7344;50.864;4.362;2022-08-19T04:24:02;17.60;99.90
14517;DHT22;7344;50.864;4.362;2022-08-19T04:26:31;17.60;99.90
14517;DHT22;7344;50.864;4.362;2022-08-19T04:28:58;17.60;99.90
14517;DHT22;7344;50.864;4.362;2022-08-19T04:31:27;17.60;99.90
14517;DHT22;7344;50.864;4.362;2022-08-19T04:33:54;17.60;99.90
14517;DHT22;7344;50.864;4.362;2022-08-19T04:36:26;17.60;99.90
14517;DHT22;7344;50.864;4.362;2022-08-19T04:38:55;17.50;99.90
14517;DHT22;7344;50.864;4.362;2022-08-19T04:41:21;17.50;99.90
14517;DHT22;7344;50.864;4.362;2022-08-19T04:44:06;17.40;99.90
14517;DHT22;7344;50.864;4.362;2022-08-19T04:46:32;17.40;99.90
14517;DHT22;7344;50.864;4.362;2022-08-19T04:48:59;17.40;99.90
14517;DHT22;7344;50.864;4.362;2022-08-19T04:51:26;17.40;99.90
14517;DHT22;7344;50.864;4.362;2022-08-19T04:53:52;17.50;99.90
14517;DHT22;7344;50.864;4.362;2022-08-19T04:56:20;17.50;99.90
14517;DHT22;7344;50.864;4.362;2022-08-19T04:58:47;17.50;99.90
14517;DHT22;7344;50.864;4.362;2022-08-19T05:01:33;17.50;99.90
14517;DHT22;7344;50.864;4.362;2022-08-19T05:04:00;17.50;99.90
14517;DHT22;7344;50.864;4.362;2022-08-19T05:06:30;17.50;99.90
14517;DHT22;7344;50.864;4.362;2022-08-19T05:08:58;17.50;99.90
14517;DHT22;7344;50.864;4.362;2022-08-19T05:11:30;17.60;99.90
14517;DHT22;7344;50.864;4.362;2022-08-19T05:13:57;17.70;99.90
14517;DHT22;7344;50.864;4.362;2022-08-19T05:16:24;18.00;99.90
14517;DHT22;7344;50.864;4.362;2022-08-19T05:18:50;18.20;99.90
14517;DHT22;7344;50.864;4.362;2022-08-19T05:21:35;18.50;99.90
14517;DHT22;7344;50.864;4.362;2022-08-19T05:24:21;19.00;99.90
14517;DHT22;7344;50.864;4.362;2022-08-19T05:26:49;19.30;96.50
14517;DHT22;7344;50.864;4.362;2022-08-19T05:29:19;19.50;80.60
14517;DHT22;7344;50.864;4.362;2022-08-19T05:31:47;19.80;73.50
14517;DHT22;7344;50.864;4.362;2022-08-19T05:34:14;20.20;55.30
14517;DHT22;7344;50.864;4.362;2022-08-19T05:36:42;20.40;27.90
14517;DHT22;7344;50.864;4.362;2022-08-19T05:39:10;20.40;25.70
14517;DHT22;7344;50.864;4.362;2022-08-19T05:41:40;20.30;40.40
14517;DHT22;7344;50.864;4.362;2022-08-19T05:44:06;21.10;22.50
14517;DHT22;7344;50.864;4.362;2022-08-19T05:46:35;21.80;1.00
14517;DHT22;7344;50.864;4.362;2022-08-19T05:49:01;21.70;1.00
14517;DHT22;7344;50.864;4.362;2022-08-19T05:51:26;21.70;1.00
14517;DHT22;7344;50.864;4.362;2022-08-19T05:53:52;21.70;1.00
14517;DHT22;7344;50.864;4.362;2022-08-19T05:56:18;21.50;1.00
14517;DHT22;7344;50.864;4.362;2022-08-19T05:58:44;21.40;1.00
14517;DHT22;7344;50.864;4.362;2022-08-19T06:01:12;21.10;4.40
14517;DHT22;7344;50.864;4.362;2022-08-19T06:03:38;20.70;14.70
14517;DHT22;7344;50.864;4.362;2022-08-19T06:06:05;20.50;27.70
14517;DHT22;7344;50.864;4.362;2022-08-19T06:08:33;20.40;34.10
14517;DHT22;7344;50.864;4.362;2022-08-19T06:11:12;20.50;35.60
14517;DHT22;7344;50.864;4.362;2022-08-19T06:13:38;20.80;25.30
14517;DHT22;7344;50.864;4.362;2022-08-19T06:16:04;21.40;11.40
14517;DHT22;7344;50.864;4.362;2022-08-19T06:18:30;21.60;1.00
14517;DHT22;7344;50.864;4.362;2022-08-19T06:20:55;21.70;1.00
14517;DHT22;7344;50.864;4.362;2022-08-19T06:23:21;21.20;1.00
14517;DHT22;7344;50.864;4.362;2022-08-19T06:25:47;20.80;15.40
14517;DHT22;7344;50.864;4.362;2022-08-19T06:28:12;20.60;28.00
14517;DHT22;7344;50.864;4.362;2022-08-19T06:30:38;20.60;31.10
14517;DHT22;7344;50.864;4.362;2022-08-19T06:33:04;21.10;26.70
14517;DHT22;7344;50.864;4.362;2022-08-19T06:35:29;21.90;1.00
14517;DHT22;7344;50.864;4.362;2022-08-19T06:37:55;22.50;1.00
14517;DHT22;7344;50.864;4.362;2022-08-19T06:40:21;22.80;1.00
14517;DHT22;7344;50.864;4.362;2022-08-19T06:42:46;22.70;1.00
14517;DHT22;7344;50.864;4.362;2022-08-19T06:45:12;22.60;1.00
14517;DHT22;7344;50.864;4.362;2022-08-19T06:47:38;23.20;1.00
14517;DHT22;7344;50.864;4.362;2022-08-19T06:50:04;23.00;1.00
14517;DHT22;7344;50.864;4.362;2022-08-19T06:52:31;22.60;1.00
14517;DHT22;7344;50.864;4.362;2022-08-19T06:54:57;22.40;1.00
14517;DHT22;7344;50.864;4.362;2022-08-19T06:57:24;22.30;1.00
14517;DHT22;7344;50.864;4.362;2022-08-19T06:59:50;23.60;1.00
14517;DHT22;7344;50.864;4.362;2022-08-19T07:02:15;24.70;1.00
14517;DHT22;7344;50.864;4.362;2022-08-19T07:04:41;24.70;1.00
14517;DHT22;7344;50.864;4.362;2022-08-19T07:07:09;24.80;1.00
14517;DHT22;7344;50.864;4.362;2022-08-19T07:09:40;24.50;1.00
14517;DHT22;7344;50.864;4.362;2022-08-19T07:12:08;24.00;1.00
14517;DHT22;7344;50.864;4.362;2022-08-19T07:14:35;23.30;1.00
14517;DHT22;7344;50.864;4.362;2022-08-19T07:17:04;22.90;1.00
14517;DHT22;7344;50.864;4.362;2022-08-19T07:19:30;22.70;1.00
14517;DHT22;7344;50.864;4.362;2022-08-19T07:21:57;22.50;1.00
14517;DHT22;7344;50.864;4.362;2022-08-19T07:24:25;22.70;1.00
14517;DHT22;7344;50.864;4.362;2022-08-19T07:26:54;22.60;1.00
14517;DHT22;7344;50.864;4.362;2022-08-19T07:29:21;22.60;1.00
14517;DHT22;7344;50.864;4.362;2022-08-19T07:31:49;22.70;1.00
14517;DHT22;7344;50.864;4.362;2022-08-19T07:34:15;22.70;1.00
14517;DHT22;7344;50.864;4.362;2022-08-19T07:36:42;22.70;1.00
14517;DHT22;7344;50.864;4.362;2022-08-19T07:39:14;23.10;1.00
14517;DHT22;7344;50.864;4.362;2022-08-19T07:41:40;23.40;1.00
14517;DHT22;7344;50.864;4.362;2022-08-19T07:44:07;23.60;1.00
14517;DHT22;7344;50.864;4.362;2022-08-19T07:46:35;24.00;1.00
14517;DHT22;7344;50.864;4.362;2022-08-19T07:49:01;24.20;1.00
14517;DHT22;7344;50.864;4.362;2022-08-19T07:51:28;24.70;1.00
14517;DHT22;7344;50.864;4.362;2022-08-19T07:53:54;24.50;1.00
14517;DHT22;7344;50.864;4.362;2022-08-19T07:56:20;24.70;1.00
14517;DHT22;7344;50.864;4.362;2022-08-19T07:58:48;24.90;1.00
14517;DHT22;7344;50.864;4.362;2022-08-19T08:01:18;24.70;1.00
14517;DHT22;7344;50.864;4.362;2022-08-19T08:03:45;24.40;1.00
14517;DHT22;7344;50.864;4.362;2022-08-19T08:06:29;24.00;1.00
14517;DHT22;7344;50.864;4.362;2022-08-19T08:09:15;23.70;1.00
14517;DHT22;7344;50.864;4.362;2022-08-19T08:11:56;24.10;1.00
14517;DHT22;7344;50.864;4.362;2022-08-19T08:14:32;24.90;1.00
14517;DHT22;7344;50.864;4.362;2022-08-19T08:16:59;25.30;1.00
14517;DHT22;7344;50.864;4.362;2022-08-19T08:19:26;25.80;1.00
14517;DHT22;7344;50.864;4.362;2022-08-19T08:21:54;25.60;1.00
14517;DHT22;7344;50.864;4.362;2022-08-19T08:24:20;25.70;1.00
14517;DHT22;7344;50.864;4.362;2022-08-19T08:26:46;25.10;1.00
14517;DHT22;7344;50.864;4.362;2022-08-19T08:29:12;24.80;1.00
14517;DHT22;7344;50.864;4.362;2022-08-19T08:31:43;24.70;1.00
14517;DHT22;7344;50.864;4.362;2022-08-19T08:34:11;24.60;1.00
14517;DHT22;7344;50.864;4.362;2022-08-19T08:36:38;24.30;1.00
14517;DHT22;7344;50.864;4.362;2022-08-19T08:39:10;24.20;1.00
14517;DHT22;7344;50.864;4.362;2022-08-19T08:44:28;23.60;1.00
14517;DHT22;7344;50.864;4.362;2022-08-19T08:47:00;23.60;1.00
14517;DHT22;7344;50.864;4.362;2022-08-19T08:49:52;23.60;1.00
14517;DHT22;7344;50.864;4.362;2022-08-19T08:52:22;23.60;1.00
14517;DHT22;7344;50.864;4.362;2022-08-19T08:54:51;23.60;1.00
14517;DHT22;7344;50.864;4.362;2022-08-19T08:57:41;23.60;1.00
14517;DHT22;7344;50.864;4.362;2022-08-19T09:00:15;23.60;1.00
14517;DHT22;7344;50.864;4.362;2022-08-19T09:02:43;23.70;1.00
14517;DHT22;7344;50.864;4.362;2022-08-19T09:05:10;23.40;1.00
14517;DHT22;7344;50.864;4.362;2022-08-19T09:08:00;23.50;1.00
14517;DHT22;7344;50.864;4.362;2022-08-19T09:13:11;23.50;1.00
14517;DHT22;7344;50.864;4.362;2022-08-19T09:15:45;23.50;1.00
14517;DHT22;7344;50.864;4.362;2022-08-19T09:18:13;23.40;1.00
14517;DHT22;7344;50.864;4.362;2022-08-19T09:20:39;23.30;1.00
14517;DHT22;7344;50.864;4.362;2022-08-19T09:23:05;23.50;1.00
14517;DHT22;7344;50.864;4.362;2022-08-19T09:25:30;23.60;1.00
14517;DHT22;7344;50.864;4.362;2022-08-19T09:27:57;23.90;1.00
14517;DHT22;7344;50.864;4.362;2022-08-19T09:30:30;24.00;1.00
14517;DHT22;7344;50.864;4.362;2022-08-19T09:32:56;23.80;1.00
14517;DHT22;7344;50.864;4.362;2022-08-19T09:35:24;23.70;1.00
14517;DHT22;7344;50.864;4.362;2022-08-19T09:37:51;23.60;1.00
14517;DHT22;7344;50.864;4.362;2022-08-19T09:40:17;23.70;1.00
14517;DHT22;7344;50.864;4.362;2022-08-19T09:42:44;23.40;1.00
14517;DHT22;7344;50.864;4.362;2022-08-19T09:45:13;23.30;1.00
14517;DHT22;7344;50.864;4.362;2022-08-19T09:47:39;23.30;1.00
14517;DHT22;7344;50.864;4.362;2022-08-19T09:50:07;23.70;1.00
14517;DHT22;7344;50.864;4.362;2022-08-19T09:52:34;23.80;1.00
14517;DHT22;7344;50.864;4.362;2022-08-19T09:55:03;23.90;1.00
14517;DHT22;7344;50.864;4.362;2022-08-19T09:57:29;23.70;1.00
14517;DHT22;7344;50.864;4.362;2022-08-19T09:59:54;23.60;1.00
14517;DHT22;7344;50.864;4.362;2022-08-19T10:02:20;23.60;1.00
14517;DHT22;7344;50.864;4.362;2022-08-19T10:04:46;23.70;1.00
14517;DHT22;7344;50.864;4.362;2022-08-19T10:07:30;23.60;1.00
14517;DHT22;7344;50.864;4.362;2022-08-19T10:09:56;24.00;1.00
14517;DHT22;7344;50.864;4.362;2022-08-19T10:12:22;24.10;1.00
14517;DHT22;7344;50.864;4.362;2022-08-19T10:14:47;24.20;1.00
14517;DHT22;7344;50.864;4.362;2022-08-19T10:17:13;23.90;1.00
14517;DHT22;7344;50.864;4.362;2022-08-19T10:19:40;23.70;1.00
14517;DHT22;7344;50.864;4.362;2022-08-19T10:22:06;23.70;1.00
14517;DHT22;7344;50.864;4.362;2022-08-19T10:24:35;24.00;1.00
14517;DHT22;7344;50.864;4.362;2022-08-19T10:27:01;24.20;1.00
14517;DHT22;7344;50.864;4.362;2022-08-19T10:29:31;24.20;1.00
14517;DHT22;7344;50.864;4.362;2022-08-19T10:31:57;24.20;1.00
14517;DHT22;7344;50.864;4.362;2022-08-19T10:34:24;24.30;1.00
14517;DHT22;7344;50.864;4.362;2022-08-19T10:36:50;24.50;1.00
14517;DHT22;7344;50.864;4.362;2022-08-19T10:39:16;24.80;1.00
14517;DHT22;7344;50.864;4.362;2022-08-19T10:41:42;24.70;1.00
14517;DHT22;7344;50.864;4.362;2022-08-19T10:44:10;24.60;1.00
14517;DHT22;7344;50.864;4.362;2022-08-19T10:46:39;24.30;1.00
14517;DHT22;7344;50.864;4.362;2022-08-19T10:49:08;24.00;1.00
14517;DHT22;7344;50.864;4.362;2022-08-19T10:51:34;23.90;1.00
14517;DHT22;7344;50.864;4.362;2022-08-19T10:54:18;24.00;1.00
14517;DHT22;7344;50.864;4.362;2022-08-19T10:56:44;24.20;1.00
14517;DHT22;7344;50.864;4.362;2022-08-19T10:59:20;24.20;1.00
14517;DHT22;7344;50.864;4.362;2022-08-19T11:01:46;24.20;1.00
14517;DHT22;7344;50.864;4.362;2022-08-19T11:04:12;24.00;1.00
14517;DHT22;7344;50.864;4.362;2022-08-19T11:06:42;24.00;1.00
14517;DHT22;7344;50.864;4.362;2022-08-19T11:09:09;24.00;1.00
14517;DHT22;7344;50.864;4.362;2022-08-19T11:11:36;23.80;1.00
14517;DHT22;7344;50.864;4.362;2022-08-19T11:14:06;23.60;10.70
14517;DHT22;7344;50.864;4.362;2022-08-19T11:16:32;23.90;7.60
14517;DHT22;7344;50.864;4.362;2022-08-19T11:18:59;23.80;1.00
14517;DHT22;7344;50.864;4.362;2022-08-19T11:21:30;24.10;1.00
14517;DHT22;7344;50.864;4.362;2022-08-19T11:24:03;24.40;1.00
14517;DHT22;7344;50.864;4.362;2022-08-19T11:26:30;24.80;1.00
14517;DHT22;7344;50.864;4.362;2022-08-19T11:28:56;24.90;1.00
14517;DHT22;7344;50.864;4.362;2022-08-19T11:31:28;24.80;1.00
14517;DHT22;7344;50.864;4.362;2022-08-19T11:34:00;24.80;1.00
14517;DHT22;7344;50.864;4.362;2022-08-19T11:36:27;25.00;1.00
14517;DHT22;7344;50.864;4.362;2022-08-19T11:38:53;24.80;1.00
14517;DHT22;7344;50.864;4.362;2022-08-19T11:41:21;24.40;1.00
14517;DHT22;7344;50.864;4.362;2022-08-19T11:43:49;24.30;1.00
14517;DHT22;7344;50.864;4.362;2022-08-19T11:46:16;24.30;1.00
14517;DHT22;7344;50.864;4.362;2022-08-19T11:48:42;24.20;1.00
14517;DHT22;7344;50.864;4.362;2022-08-19T11:51:16;24.40;1.00
14517;DHT22;7344;50.864;4.362;2022-08-19T11:53:42;24.60;1.00
14517;DHT22;7344;50.864;4.362;2022-08-19T11:56:08;24.90;1.00
14517;DHT22;7344;50.864;4.362;2022-08-19T11:58:35;24.90;1.00
14517;DHT22;7344;50.864;4.362;2022-08-19T12:01:04;25.30;1.00
14517;DHT22;7344;50.864;4.362;2022-08-19T12:03:30;26.10;1.00
14517;DHT22;7344;50.864;4.362;2022-08-19T12:05:56;26.00;1.00
14517;DHT22;7344;50.864;4.362;2022-08-19T12:08:22;26.10;1.00
14517;DHT22;7344;50.864;4.362;2022-08-19T12:10:47;26.10;1.00
14517;DHT22;7344;50.864;4.362;2022-08-19T12:13:14;26.30;1.00
14517;DHT22;7344;50.864;4.362;2022-08-19T12:15:44;26.80;1.00
14517;DHT22;7344;50.864;4.362;2022-08-19T12:18:11;27.20;99.90
14517;DHT22;7344;50.864;4.362;2022-08-19T12:20:40;27.10;99.90
14517;DHT22;7344;50.864;4.362;2022-08-19T12:23:08;27.40;99.90
14517;DHT22;7344;50.864;4.362;2022-08-19T12:25:35;27.30;1.00
14517;DHT22;7344;50.864;4.362;2022-08-19T12:28:02;27.50;1.00
14517;DHT22;7344;50.864;4.362;2022-08-19T12:30:27;27.20;99.90
14517;DHT22;7344;50.864;4.362;2022-08-19T12:32:53;26.60;1.00
14517;DHT22;7344;50.864;4.362;2022-08-19T12:35:19;26.50;1.00
14517;DHT22;7344;50.864;4.362;2022-08-19T12:37:46;26.70;1.00
14517;DHT22;7344;50.864;4.362;2022-08-19T12:40:14;27.00;99.90
14517;DHT22;7344;50.864;4.362;2022-08-19T12:42:40;27.10;99.90
14517;DHT22;7344;50.864;4.362;2022-08-19T12:45:10;26.50;1.00
14517;DHT22;7344;50.864;4.362;2022-08-19T12:47:36;26.50;1.00
14517;DHT22;7344;50.864;4.362;2022-08-19T12:50:03;26.20;1.00
14517;DHT22;7344;50.864;4.362;2022-08-19T12:52:28;26.50;1.00
14517;DHT22;7344;50.864;4.362;2022-08-19T12:54:55;26.50;1.00
14517;DHT22;7344;50.864;4.362;2022-08-19T12:57:24;26.90;1.00
14517;DHT22;7344;50.864;4.362;2022-08-19T12:59:52;27.10;99.90
14517;DHT22;7344;50.864;4.362;2022-08-19T13:02:22;27.10;1.00
14517;DHT22;7344;50.864;4.362;2022-08-19T13:04:48;27.20;98.80
14517;DHT22;7344;50.864;4.362;2022-08-19T13:07:13;27.30;1.00
14517;DHT22;7344;50.864;4.362;2022-08-19T13:09:40;27.50;1.00
14517;DHT22;7344;50.864;4.362;2022-08-19T13:12:08;27.80;99.90
14517;DHT22;7344;50.864;4.362;2022-08-19T13:14:38;27.80;1.00
14517;DHT22;7344;50.864;4.362;2022-08-19T13:17:05;27.90;1.00
14517;DHT22;7344;50.864;4.362;2022-08-19T13:19:31;28.00;1.00
14517;DHT22;7344;50.864;4.362;2022-08-19T13:21:57;27.70;99.90
14517;DHT22;7344;50.864;4.362;2022-08-19T13:24:23;27.50;1.00
14517;DHT22;7344;50.864;4.362;2022-08-19T13:26:49;27.10;99.90
14517;DHT22;7344;50.864;4.362;2022-08-19T13:29:14;27.00;62.20
14517;DHT22;7344;50.864;4.362;2022-08-19T13:31:58;26.90;99.90
14517;DHT22;7344;50.864;4.362;2022-08-19T13:34:42;26.90;99.90
14517;DHT22;7344;50.864;4.362;2022-08-19T13:37:08;27.00;99.90
14517;DHT22;7344;50.864;4.362;2022-08-19T13:39:34;27.20;99.90
14517;DHT22;7344;50.864;4.362;2022-08-19T13:42:01;27.00;99.90
14517;DHT22;7344;50.864;4.362;2022-08-19T13:44:28;26.80;99.90
14517;DHT22;7344;50.864;4.362;2022-08-19T13:47:02;26.70;99.90
14517;DHT22;7344;50.864;4.362;2022-08-19T13:49:31;26.80;99.90
14517;DHT22;7344;50.864;4.362;2022-08-19T13:51:57;26.90;99.90
14517;DHT22;7344;50.864;4.362;2022-08-19T13:54:22;26.90;99.90
14517;DHT22;7344;50.864;4.362;2022-08-19T13:56:48;26.90;99.90
14517;DHT22;7344;50.864;4.362;2022-08-19T13:59:13;26.50;99.90
14517;DHT22;7344;50.864;4.362;2022-08-19T14:01:39;26.40;1.00
14517;DHT22;7344;50.864;4.362;2022-08-19T14:04:06;26.30;1.00
14517;DHT22;7344;50.864;4.362;2022-08-19T14:06:32;26.30;1.00
14517;DHT22;7344;50.864;4.362;2022-08-19T14:08:58;26.40;1.00
14517;DHT22;7344;50.864;4.362;2022-08-19T14:11:23;26.20;1.00
14517;DHT22;7344;50.864;4.362;2022-08-19T14:13:50;25.90;1.00
14517;DHT22;7344;50.864;4.362;2022-08-19T14:16:16;25.50;1.00
14517;DHT22;7344;50.864;4.362;2022-08-19T14:18:42;25.20;1.00
14517;DHT22;7344;50.864;4.362;2022-08-19T14:21:11;24.80;1.00
14517;DHT22;7344;50.864;4.362;2022-08-19T14:23:39;24.60;5.20
14517;DHT22;7344;50.864;4.362;2022-08-19T14:26:10;24.20;46.00
14517;DHT22;7344;50.864;4.362;2022-08-19T14:28:37;24.10;80.20
14517;DHT22;7344;50.864;4.362;2022-08-19T14:31:02;24.10;57.80
14517;DHT22;7344;50.864;4.362;2022-08-19T14:33:28;24.00;63.90
14517;DHT22;7344;50.864;4.362;2022-08-19T14:35:54;23.90;52.50
14517;DHT22;7344;50.864;4.362;2022-08-19T14:38:20;23.90;37.10
14517;DHT22;7344;50.864;4.362;2022-08-19T14:40:45;23.80;24.80
14517;DHT22;7344;50.864;4.362;2022-08-19T14:43:12;23.70;39.90
14517;DHT22;7344;50.864;4.362;2022-08-19T14:45:39;23.50;57.70
14517;DHT22;7344;50.864;4.362;2022-08-19T14:48:05;23.40;67.40
14517;DHT22;7344;50.864;4.362;2022-08-19T14:50:32;23.50;81.70
14517;DHT22;7344;50.864;4.362;2022-08-19T14:53:04;23.30;86.30
14517;DHT22;7344;50.864;4.362;2022-08-19T14:55:30;23.20;97.80
14517;DHT22;7344;50.864;4.362;2022-08-19T14:57:57;23.30;99.90
14517;DHT22;7344;50.864;4.362;2022-08-19T15:00:23;23.30;99.90
14517;DHT22;7344;50.864;4.362;2022-08-19T15:02:49;23.60;99.90
14517;DHT22;7344;50.864;4.362;2022-08-19T15:05:16;23.90;69.40
14517;DHT22;7344;50.864;4.362;2022-08-19T15:07:41;24.30;51.20
14517;DHT22;7344;50.864;4.362;2022-08-19T15:10:08;24.40;28.70
14517;DHT22;7344;50.864;4.362;2022-08-19T15:12:35;24.70;22.80
14517;DHT22;7344;50.864;4.362;2022-08-19T15:15:01;24.80;20.30
14517;DHT22;7344;50.864;4.362;2022-08-19T15:17:27;24.90;16.20
14517;DHT22;7344;50.864;4.362;2022-08-19T15:19:55;25.10;1.00
14517;DHT22;7344;50.864;4.362;2022-08-19T15:22:21;25.30;1.00
14517;DHT22;7344;50.864;4.362;2022-08-19T15:24:47;24.90;11.00
14517;DHT22;7344;50.864;4.362;2022-08-19T15:27:13;24.80;9.70
14517;DHT22;7344;50.864;4.362;2022-08-19T15:29:39;24.50;17.00
14517;DHT22;7344;50.864;4.362;2022-08-19T15:32:06;24.50;32.60
14517;DHT22;7344;50.864;4.362;2022-08-19T15:34:33;24.50;15.80
14517;DHT22;7344;50.864;4.362;2022-08-19T15:37:00;24.70;19.20
14517;DHT22;7344;50.864;4.362;2022-08-19T15:39:25;24.70;5.90
14517;DHT22;7344;50.864;4.362;2022-08-19T15:41:51;24.50;12.20
14517;DHT22;7344;50.864;4.362;2022-08-19T15:44:18;24.70;14.00
14517;DHT22;7344;50.864;4.362;2022-08-19T15:46:46;24.80;1.90
14517;DHT22;7344;50.864;4.362;2022-08-19T15:49:14;24.70;3.40
14517;DHT22;7344;50.864;4.362;2022-08-19T15:51:42;24.70;1.00
14517;DHT22;7344;50.864;4.362;2022-08-19T15:54:11;24.80;4.30
14517;DHT22;7344;50.864;4.362;2022-08-19T15:56:37;24.80;1.00
14517;DHT22;7344;50.864;4.362;2022-08-19T15:59:21;24.80;1.00
14517;DHT22;7344;50.864;4.362;2022-08-19T16:02:06;24.60;26.40
14517;DHT22;7344;50.864;4.362;2022-08-19T16:04:51;24.30;36.50